createdAt,value
2022-08-02T00:00:58.006Z,24.10
2022-08-02T00:06:01.088Z,24.65
2022-08-02T00:11:04.988Z,26.71
2022-08-02T00:16:16.932Z,26.61
2022-08-02T00:21:20.119Z,25.17
2022-08-02T00:26:23.050Z,24.36
2022-08-02T00:31:26.071Z,23.81
2022-08-02T00:36:29.457Z,24.35
2022-08-02T00:41:32.319Z,26.52
2022-08-02T00:46:35.224Z,26.64
2022-08-02T00:51:39.261Z,25.17
2022-08-02T00:56:50.021Z,24.24
2022-08-02T01:01:58.139Z,23.62
2022-08-02T01:07:12.304Z,24.18
2022-08-02T01:12:17.026Z,26.37
2022-08-02T01:17:34.518Z,26.67
2022-08-02T01:23:01.588Z,25.13
2022-08-02T01:28:26.148Z,24.11
2022-08-02T01:33:43.062Z,24.55
2022-08-02T01:38:53.490Z,26.64
2022-08-02T01:43:59.551Z,26.69
2022-08-02T01:49:08.515Z,25.18
2022-08-02T01:54:17.705Z,24.23
2022-08-02T01:59:23.154Z,23.58
2022-08-02T02:04:29.302Z,24.16
2022-08-02T02:09:37.389Z,26.36
2022-08-02T02:14:56.173Z,26.58
2022-08-02T02:20:01.949Z,25.07
2022-08-02T02:25:06.567Z,24.11
2022-08-02T02:30:10.077Z,24.49
2022-08-02T02:35:16.476Z,26.57
2022-08-02T02:40:20.725Z,26.54
2022-08-02T02:45:24.290Z,25.00
2022-08-02T02:50:28.718Z,24.08
2022-08-02T02:55:32.083Z,24.41
2022-08-02T03:00:53.816Z,26.43
2022-08-02T03:05:56.790Z,26.23
2022-08-02T03:11:00.325Z,24.75
2022-08-02T03:16:03.774Z,23.92
2022-08-02T03:21:08.798Z,24.36
2022-08-02T03:26:12.620Z,26.43
2022-08-02T03:31:15.697Z,26.69
2022-08-02T03:36:21.702Z,25.15
2022-08-02T03:41:25.568Z,24.11
2022-08-02T03:46:28.950Z,24.46
2022-08-02T03:51:31.961Z,26.51
2022-08-02T03:56:35.270Z,26.53
2022-08-02T04:01:38.295Z,25.04
2022-08-02T04:06:41.853Z,24.13
2022-08-02T04:11:44.828Z,24.60
2022-08-02T04:16:53.784Z,26.71
2022-08-02T04:22:00.061Z,26.58
2022-08-02T04:27:19.249Z,25.14
2022-08-02T04:32:27.976Z,24.14
2022-08-02T04:37:31.193Z,24.53
2022-08-02T04:42:34.302Z,26.66
2022-08-02T04:48:02.139Z,26.58
2022-08-02T04:53:00.140Z,25.05
2022-08-02T04:58:04.253Z,24.10
2022-08-02T05:03:12.727Z,24.53
2022-08-02T05:08:15.620Z,26.63
2022-08-02T05:13:18.556Z,26.82
2022-08-02T05:18:21.759Z,25.28
2022-08-02T05:23:24.699Z,24.31
2022-08-02T05:28:28.116Z,24.70
2022-08-02T05:33:31.079Z,26.77
2022-08-02T05:38:36.942Z,26.58
2022-08-02T05:43:40.581Z,25.07
2022-08-02T05:48:45.066Z,24.14
2022-08-02T05:53:56.946Z,24.53
2022-08-02T05:59:13.862Z,26.66
2022-08-02T06:04:26.286Z,26.26
2022-08-02T06:09:29.548Z,24.92
2022-08-02T06:14:33.800Z,24.21
2022-08-02T06:19:51.858Z,24.71
2022-08-02T06:24:58.954Z,26.93
2022-08-02T06:30:03.569Z,26.53
2022-08-02T06:35:09.470Z,25.26
2022-08-02T06:40:35.950Z,24.53
2022-08-02T06:45:40.119Z,24.04
2022-08-02T06:50:44.398Z,24.74
2022-08-02T06:55:47.383Z,26.89
2022-08-02T07:00:50.655Z,26.33
2022-08-02T07:05:54.183Z,25.02
2022-08-02T07:10:58.436Z,24.34
2022-08-02T07:16:02.742Z,24.93
2022-08-02T07:21:06.341Z,27.07
2022-08-02T07:26:13.082Z,26.76
2022-08-02T07:31:16.052Z,25.48
2022-08-02T07:36:22.432Z,24.65
2022-08-02T07:41:26.124Z,24.11
2022-08-02T07:46:29.176Z,24.74
2022-08-02T07:51:33.554Z,26.60
2022-08-02T07:56:37.470Z,25.59
2022-08-02T08:01:45.009Z,24.70
2022-08-02T08:06:52.148Z,24.20
2022-08-02T08:11:55.076Z,24.91
2022-08-02T08:16:57.960Z,26.52
2022-08-02T08:22:01.019Z,25.47
2022-08-02T08:27:05.866Z,24.75
2022-08-02T08:32:15.676Z,24.35
2022-08-02T08:37:19.544Z,25.15
2022-08-02T08:42:22.421Z,26.86
2022-08-02T08:47:39.928Z,25.86
2022-08-02T08:52:53.630Z,25.15
2022-08-02T08:57:58.762Z,24.76
2022-08-02T09:03:06.274Z,24.54
2022-08-02T09:08:13.458Z,24.35
2022-08-02T09:13:38.591Z,25.29
2022-08-02T09:18:48.676Z,26.90
2022-08-02T09:23:53.009Z,26.02
2022-08-02T09:29:02.636Z,25.53
2022-08-02T09:34:05.929Z,25.21
2022-08-02T09:39:14.627Z,25.01
2022-08-02T09:44:17.596Z,24.86
2022-08-02T09:49:20.780Z,24.75
2022-08-02T09:54:29.339Z,24.73
2022-08-02T09:59:32.592Z,24.76
2022-08-02T10:04:52.552Z,24.72
2022-08-02T10:09:57.402Z,24.60
2022-08-02T10:15:00.450Z,24.52
2022-08-02T10:20:04.895Z,24.65
2022-08-02T10:25:09.174Z,24.91
2022-08-02T10:30:12.814Z,25.23
2022-08-02T10:35:25.000Z,25.52
2022-08-02T10:41:02.982Z,25.59
2022-08-02T10:46:29.726Z,25.51
2022-08-02T10:52:13.747Z,25.40
2022-08-02T10:57:26.232Z,25.38
2022-08-02T11:02:44.273Z,25.51
2022-08-02T11:07:50.019Z,25.60
2022-08-02T11:13:04.946Z,25.63
2022-08-02T11:18:07.852Z,25.53
2022-08-02T11:23:45.084Z,25.66
2022-08-02T11:28:50.135Z,25.94
2022-08-02T11:33:53.122Z,26.01
2022-08-02T11:39:12.664Z,26.22
2022-08-02T11:44:19.893Z,26.36
2022-08-02T11:49:27.114Z,26.31
2022-08-02T11:54:32.540Z,26.22
2022-08-02T11:59:40.327Z,26.36
2022-08-02T12:04:44.167Z,26.62
2022-08-02T12:09:47.073Z,26.87
2022-08-02T12:14:51.963Z,27.11
2022-08-02T12:19:54.932Z,27.44
2022-08-02T12:24:58.663Z,27.57
2022-08-02T12:30:06.840Z,27.42
2022-08-02T12:35:26.686Z,27.45
2022-08-02T12:40:32.459Z,27.59
2022-08-02T12:45:55.683Z,27.75
2022-08-02T12:50:58.869Z,28.02
2022-08-02T12:56:03.901Z,28.29
2022-08-02T13:01:07.260Z,28.55
2022-08-02T13:06:29.484Z,28.65
2022-08-02T13:11:33.221Z,28.68
2022-08-02T13:16:36.059Z,28.65
2022-08-02T13:21:41.194Z,28.70
2022-08-02T13:27:05.192Z,28.61
2022-08-02T13:32:11.962Z,28.34
2022-08-02T13:37:15.365Z,28.13
2022-08-02T13:42:18.509Z,27.93
2022-08-02T13:47:26.704Z,27.68
2022-08-02T13:52:39.442Z,27.46
2022-08-02T13:57:42.456Z,27.59
2022-08-02T14:02:45.468Z,27.89
2022-08-02T14:07:48.350Z,28.21
2022-08-02T14:12:56.749Z,28.52
2022-08-02T14:17:59.714Z,28.79
2022-08-02T14:23:02.558Z,28.99
2022-08-02T14:28:06.677Z,29.10
2022-08-02T14:33:09.623Z,28.96
2022-08-02T14:38:12.779Z,28.83
2022-08-02T14:43:34.278Z,28.74
2022-08-02T14:48:37.095Z,28.61
2022-08-02T14:53:49.436Z,28.39
2022-08-02T14:59:04.936Z,28.18
2022-08-02T15:04:07.993Z,28.06
2022-08-02T15:09:10.981Z,27.93
2022-08-02T15:14:13.958Z,27.83
2022-08-02T15:19:16.969Z,27.66
2022-08-02T15:24:22.083Z,27.44
2022-08-02T15:29:25.006Z,27.20
2022-08-02T15:34:27.845Z,26.95
2022-08-02T15:39:31.264Z,26.78
2022-08-02T15:44:34.389Z,26.68
2022-08-02T15:49:41.372Z,26.59
2022-08-02T15:54:44.613Z,26.57
2022-08-02T15:59:47.658Z,26.56
2022-08-02T16:04:50.637Z,26.55
2022-08-02T16:09:53.548Z,26.55
2022-08-02T16:14:56.473Z,26.56
2022-08-02T16:19:59.394Z,26.56
2022-08-02T16:25:02.819Z,26.48
2022-08-02T16:30:06.459Z,26.36
2022-08-02T16:35:09.480Z,26.30
2022-08-02T16:40:12.721Z,26.22
2022-08-02T16:45:15.695Z,26.13
2022-08-02T16:50:27.131Z,26.11
2022-08-02T16:55:30.770Z,26.07
2022-08-02T17:00:34.258Z,25.98
2022-08-02T17:05:56.013Z,25.94
2022-08-02T17:11:03.704Z,25.94
2022-08-02T17:16:26.216Z,25.89
2022-08-02T17:21:31.975Z,25.86
2022-08-02T17:26:38.269Z,25.84
2022-08-02T17:31:42.889Z,25.84
2022-08-02T17:36:49.762Z,25.84
2022-08-02T17:41:52.980Z,25.81
2022-08-02T17:46:56.411Z,25.77
2022-08-02T17:52:48.723Z,25.71
2022-08-02T17:57:22.396Z,25.63
2022-08-02T18:02:26.911Z,25.57
2022-08-02T18:07:30.112Z,25.49
2022-08-02T18:12:53.512Z,25.41
2022-08-02T18:17:59.083Z,25.32
2022-08-02T18:23:02.167Z,25.22
2022-08-02T18:28:05.383Z,25.13
2022-08-02T18:33:56.861Z,25.03
2022-08-02T18:38:31.659Z,24.95
2022-08-02T18:43:39.318Z,24.89
2022-08-02T18:48:47.760Z,24.82
2022-08-02T18:53:53.335Z,24.76
2022-08-02T18:58:58.347Z,24.70
2022-08-02T19:04:08.747Z,24.61
2022-08-02T19:09:13.579Z,24.52
2022-08-02T19:14:24.301Z,24.42
2022-08-02T19:19:31.158Z,24.33
2022-08-02T19:24:37.182Z,24.23
2022-08-02T19:29:49.075Z,24.18
2022-08-02T19:34:56.133Z,24.07
2022-08-02T19:39:59.058Z,23.99
2022-08-02T19:45:02.371Z,23.94
2022-08-02T19:50:08.311Z,24.81
2022-08-02T19:55:59.907Z,27.34
2022-08-02T20:00:36.681Z,27.65
2022-08-02T20:05:39.737Z,26.41
2022-08-02T20:10:45.944Z,25.67
2022-08-02T20:15:55.797Z,25.12
2022-08-02T20:21:00.253Z,24.67
2022-08-02T20:26:05.431Z,24.34
2022-08-02T20:31:10.128Z,24.03
2022-08-02T20:36:14.254Z,23.80
2022-08-02T20:41:21.492Z,24.55
2022-08-02T20:46:24.763Z,26.86
2022-08-02T20:51:33.495Z,26.38
2022-08-02T20:56:37.615Z,25.32
2022-08-02T21:01:41.226Z,24.74
2022-08-02T21:07:00.558Z,24.33
2022-08-02T21:12:05.275Z,24.01
2022-08-02T21:17:11.116Z,23.73
2022-08-02T21:22:14.623Z,24.44
2022-08-02T21:27:51.579Z,26.81
2022-08-02T21:32:41.897Z,26.82
2022-08-02T21:37:47.384Z,25.58
2022-08-02T21:42:50.236Z,24.85
2022-08-02T21:47:53.657Z,24.33
2022-08-02T21:52:56.473Z,23.93
2022-08-02T21:57:59.318Z,23.58
2022-08-02T22:03:22.727Z,24.28
2022-08-02T22:08:25.420Z,26.72
2022-08-02T22:13:29.546Z,26.54
2022-08-02T22:18:41.887Z,25.30
2022-08-02T22:23:54.560Z,24.57
2022-08-02T22:28:59.598Z,24.02
2022-08-02T22:34:05.537Z,23.54
2022-08-02T22:39:28.517Z,23.16
2022-08-02T22:44:31.564Z,23.89
2022-08-02T22:49:51.501Z,26.28
2022-08-02T22:54:57.548Z,26.11
2022-08-02T23:00:01.195Z,24.84
2022-08-02T23:05:05.173Z,24.09
2022-08-02T23:10:08.949Z,23.54
2022-08-02T23:15:11.869Z,23.09
2022-08-02T23:20:14.835Z,23.76
2022-08-02T23:25:18.071Z,26.09
2022-08-02T23:30:21.302Z,26.40
2022-08-02T23:35:24.217Z,25.02
2022-08-02T23:40:38.764Z,24.17
2022-08-02T23:45:46.192Z,23.57
2022-08-02T23:50:49.342Z,23.12
2022-08-02T23:55:52.253Z,23.71
